Time;durP1;ratioP1;P1;durP2;ratioP2;P2;SDS_P1;SDS_P2;PMS_P1;PMS_P2;Temp;Humidity;BMP_temperature;BMP_pressure;BME280_temperature;BME280_humidity;BME280_pressure;Samples;Min_cycle;Max_cycle;Signal;HPM_P1;HPM_P2
2021/07/23 00:00:58;;;;;;;23.52;14.77;;;15.00;99.90;;;;;;5052526;28;19928;-61
2021/07/23 00:03:24;;;;;;;;;;;14.90;99.90;;;;;;5060950;28;20033;-57
2021/07/23 00:05:49;;;;;;;22.95;14.50;;;14.90;99.90;;;;;;5060645;28;19927;-59
2021/07/23 00:08:15;;;;;;;;;;;14.80;99.90;;;;;;5060765;28;20045;-57
2021/07/23 00:10:40;;;;;;;21.58;14.02;;;14.80;99.90;;;;;;5059435;28;20617;-61
2021/07/23 00:13:06;;;;;;;;;;;14.80;99.90;;;;;;5060768;28;20036;-56
2021/07/23 00:15:31;;;;;;;19.85;13.45;;;14.80;99.90;;;;;;5062659;28;19943;-59
2021/07/23 00:17:57;;;;;;;;;;;14.70;99.90;;;;;;5053988;28;20179;-57
2021/07/23 00:20:22;;;;;;;20.80;14.20;;;14.70;99.90;;;;;;5047626;28;20001;-60
2021/07/23 00:22:48;;;;;;;;;;;14.70;99.90;;;;;;5047272;28;20060;-60
2021/07/23 00:25:13;;;;;;;21.02;14.02;;;14.70;99.90;;;;;;5045940;28;19921;-60
2021/07/23 00:27:39;;;;;;;;;;;14.70;99.90;;;;;;5046073;28;20037;-55
2021/07/23 00:30:06;;;;;;;21.75;12.60;;;14.70;99.90;;;;;;5038418;28;19917;-59
2021/07/23 00:32:34;;;;;;;21.98;13.77;;;14.70;99.90;;;;;;5026945;28;20037;-59
2021/07/23 00:35:00;;;;;;;25.55;14.82;;;14.70;99.90;;;;;;5035207;28;20048;-61
2021/07/23 00:37:25;;;;;;;;;;;14.70;99.90;;;;;;5049669;28;20048;-61
2021/07/23 00:39:51;;;;;;;23.58;13.93;;;14.70;99.90;;;;;;5047161;28;19995;-58
2021/07/23 00:42:16;;;;;;;;;;;14.60;99.90;;;;;;5048242;28;20029;-59
2021/07/23 00:44:42;;;;;;;21.52;14.30;;;14.60;99.90;;;;;;5047422;28;19975;-59
2021/07/23 00:47:07;;;;;;;;;;;14.60;99.90;;;;;;5047460;28;20048;-59
2021/07/23 00:49:33;;;;;;;20.75;12.50;;;14.60;99.90;;;;;;5047235;28;19920;-57
2021/07/23 00:51:58;;;;;;;;;;;14.60;99.90;;;;;;5047891;28;20037;-58
2021/07/23 00:54:25;;;;;;;21.63;13.13;;;14.60;99.90;;;;;;5046432;28;20031;-55
2021/07/23 00:56:51;;;;;;;23.17;13.18;;;14.60;99.90;;;;;;5046041;28;20134;-57
2021/07/23 00:59:16;;;;;;;;;;;14.60;99.90;;;;;;5046807;28;20033;-59
2021/07/23 01:01:43;;;;;;;27.65;12.63;;;14.60;99.90;;;;;;5036913;28;19917;-59
2021/07/23 01:04:09;;;;;;;23.83;14.40;;;14.60;99.90;;;;;;5045076;28;20043;-57
2021/07/23 01:06:35;;;;;;;;;;;14.60;99.90;;;;;;5045548;28;20049;-59
2021/07/23 01:09:01;;;;;;;23.80;13.02;;;14.60;99.90;;;;;;5045704;28;19948;-58
2021/07/23 01:11:26;;;;;;;;;;;14.50;99.90;;;;;;5046051;28;20065;-59
2021/07/23 01:13:52;;;;;;;23.40;13.10;;;14.50;99.90;;;;;;5046523;28;20622;-56
2021/07/23 01:16:18;;;;;;;;;;;14.40;99.90;;;;;;5046412;28;20124;-56
2021/07/23 01:18:43;;;;;;;21.15;13.40;;;14.40;99.90;;;;;;5046326;28;20029;-58
2021/07/23 01:21:09;;;;;;;;;;;14.30;99.90;;;;;;5046481;28;20041;-56
2021/07/23 01:23:36;;;;;;;17.85;12.27;;;14.30;99.90;;;;;;5046258;28;19936;-60
2021/07/23 01:26:03;;;;;;;19.45;12.98;;;14.30;99.90;;;;;;5046733;28;20723;-53
2021/07/23 01:28:31;;;;;;;18.15;13.23;;;14.30;99.90;;;;;;5046568;28;20040;-59
2021/07/23 01:30:58;;;;;;;22.90;14.77;;;14.30;99.90;;;;;;5045164;28;20037;-58
2021/07/23 01:33:25;;;;;;;19.50;13.52;;;14.30;99.90;;;;;;5047661;28;20052;-58
2021/07/23 01:35:51;;;;;;;21.65;13.73;;;14.30;99.90;;;;;;5062387;28;20039;-58
2021/07/23 01:38:17;;;;;;;;;;;14.30;99.90;;;;;;5046125;28;20468;-58
2021/07/23 01:40:46;;;;;;;21.30;13.98;;;14.20;99.90;;;;;;5046638;28;19912;-58
2021/07/23 01:43:14;;;;;;;19.88;12.65;;;14.20;99.90;;;;;;5046677;28;20037;-59
2021/07/23 01:45:40;;;;;;;24.02;14.40;;;14.10;99.90;;;;;;5045622;28;20053;-58
2021/07/23 01:48:06;;;;;;;;;;;14.10;99.90;;;;;;5046909;28;20463;-58
2021/07/23 01:50:31;;;;;;;17.48;12.20;;;14.10;99.90;;;;;;5046414;28;19916;-59
2021/07/23 01:52:57;;;;;;;;;;;14.20;99.90;;;;;;5045547;28;20488;-59
2021/07/23 01:55:22;;;;;;;21.13;13.35;;;14.20;99.90;;;;;;5045896;28;20360;-59
2021/07/23 01:57:48;;;;;;;;;;;14.20;99.90;;;;;;5046520;28;20120;-58
2021/07/23 02:00:14;;;;;;;20.08;14.18;;;14.20;99.90;;;;;;5043633;28;20355;-58
2021/07/23 02:02:39;;;;;;;;;;;14.20;99.90;;;;;;5039553;28;20736;-59
2021/07/23 02:05:05;;;;;;;23.98;14.50;;;14.10;99.90;;;;;;5045811;28;19950;-58
2021/07/23 02:07:31;;;;;;;;;;;14.00;99.90;;;;;;5045483;28;20132;-60
2021/07/23 02:09:57;;;;;;;20.00;13.55;;;14.10;99.90;;;;;;5045706;28;20414;-58
2021/07/23 02:12:22;;;;;;;;;;;14.00;99.90;;;;;;5046071;28;20235;-59
2021/07/23 02:14:48;;;;;;;23.90;13.35;;;14.00;99.90;;;;;;5045722;28;19952;-59
2021/07/23 02:17:13;;;;;;;;;;;14.00;99.90;;;;;;5046080;28;20727;-58
2021/07/23 02:19:39;;;;;;;19.48;13.02;;;13.90;99.90;;;;;;5046950;28;20467;-56
2021/07/23 02:22:05;;;;;;;;;;;13.80;99.90;;;;;;5046842;28;20041;-58
2021/07/23 02:24:31;;;;;;;20.73;12.55;;;13.80;99.90;;;;;;5045748;28;20296;-57
2021/07/23 02:26:56;;;;;;;;;;;13.80;99.90;;;;;;5046568;28;20037;-58
2021/07/23 02:29:23;;;;;;;20.77;13.02;;;13.80;99.90;;;;;;5045421;28;19917;-58
2021/07/23 02:31:48;;;;;;;23.27;13.73;;;13.70;99.90;;;;;;5044731;28;20116;-57
2021/07/23 02:34:14;;;;;;;;;;;13.70;99.90;;;;;;5045954;28;20123;-58
2021/07/23 02:36:39;;;;;;;20.42;13.20;;;13.70;99.90;;;;;;5043603;28;19962;-61
2021/07/23 02:39:05;;;;;;;;;;;13.70;99.90;;;;;;5046595;28;20040;-59
2021/07/23 02:41:30;;;;;;;20.17;12.60;;;13.70;99.90;;;;;;5045175;28;19923;-58
2021/07/23 02:43:56;;;;;;;;;;;13.60;99.90;;;;;;5045590;28;20029;-61
2021/07/23 02:46:21;;;;;;;23.20;12.52;;;13.70;99.90;;;;;;5046805;28;20390;-61
2021/07/23 02:48:47;;;;;;;;;;;13.60;99.90;;;;;;5046582;28;20124;-59
2021/07/23 02:51:13;;;;;;;18.75;11.65;;;13.60;99.90;;;;;;5044969;28;19948;-60
2021/07/23 02:53:39;;;;;;;21.98;13.98;;;13.60;99.90;;;;;;5045157;28;20037;-61
2021/07/23 02:56:04;;;;;;;;;;;13.60;99.90;;;;;;5044950;28;20398;-61
2021/07/23 02:58:30;;;;;;;20.08;13.13;;;13.50;99.90;;;;;;5044681;28;20004;-60
2021/07/23 03:00:56;;;;;;;;;;;13.40;99.90;;;;;;5037697;28;20461;-59
2021/07/23 03:03:21;;;;;;;20.17;12.88;;;13.50;99.90;;;;;;5043644;28;20631;-60
2021/07/23 03:05:47;;;;;;;;;;;13.40;99.90;;;;;;5044573;28;20459;-60
2021/07/23 03:08:12;;;;;;;24.92;12.57;;;13.40;99.90;;;;;;5044844;28;20744;-59
2021/07/23 03:10:38;;;;;;;;;;;13.40;99.90;;;;;;5045251;28;20060;-60
2021/07/23 03:13:03;;;;;;;21.52;13.13;;;13.40;99.90;;;;;;5044174;28;19944;-59
2021/07/23 03:15:29;;;;;;;;;;;13.30;99.90;;;;;;5045161;28;20041;-59
2021/07/23 03:17:54;;;;;;;19.08;12.43;;;13.30;99.90;;;;;;5044811;28;20311;-58
2021/07/23 03:20:20;;;;;;;;;;;13.20;99.90;;;;;;5044685;28;20073;-61
2021/07/23 03:22:45;;;;;;;18.23;12.10;;;13.20;99.90;;;;;;5044047;28;19920;-60
2021/07/23 03:25:11;;;;;;;;;;;13.20;99.90;;;;;;5033701;28;20568;-60
2021/07/23 03:27:37;;;;;;;17.95;12.63;;;13.20;99.90;;;;;;5044445;28;19998;-60
2021/07/23 03:30:03;;;;;;;;;;;13.20;99.90;;;;;;5044655;28;20196;-60
2021/07/23 03:32:29;;;;;;;20.85;12.07;;;13.10;99.90;;;;;;5043293;28;19921;-60
2021/07/23 03:34:54;;;;;;;;;;;13.10;99.90;;;;;;5044694;28;20045;-60
2021/07/23 03:37:20;;;;;;;20.52;11.10;;;13.10;99.90;;;;;;5044961;28;19917;-60
2021/07/23 03:39:45;;;;;;;;;;;13.20;99.90;;;;;;5045467;28;20056;-61
2021/07/23 03:42:11;;;;;;;17.60;10.98;;;13.20;99.90;;;;;;5044140;28;19916;-61
2021/07/23 03:44:36;;;;;;;;;;;13.20;99.90;;;;;;5045434;28;20127;-61
2021/07/23 03:47:02;;;;;;;19.20;11.70;;;13.10;99.90;;;;;;5044012;28;20008;-61
2021/07/23 03:49:28;;;;;;;;;;;13.20;99.90;;;;;;5044012;28;20069;-60
2021/07/23 03:51:55;;;;;;;23.30;11.63;;;13.00;99.90;;;;;;5043665;28;19924;-61
2021/07/23 03:54:21;;;;;;;17.95;11.93;;;13.00;99.90;;;;;;5048301;28;20432;-61
2021/07/23 03:56:46;;;;;;;;;;;13.00;99.90;;;;;;5047448;28;20036;-60
2021/07/23 03:59:12;;;;;;;19.98;12.73;;;13.00;99.90;;;;;;5047089;28;19913;-60
2021/07/23 04:01:38;;;;;;;;;;;13.00;99.90;;;;;;5039195;28;20143;-59
2021/07/23 04:04:04;;;;;;;20.67;12.57;;;12.90;99.90;;;;;;5049404;28;20379;-59
2021/07/23 04:06:29;;;;;;;;;;;12.90;99.90;;;;;;5049108;28;20302;-59
2021/07/23 04:08:55;;;;;;;23.38;13.18;;;13.00;99.90;;;;;;5048337;28;19923;-59
2021/07/23 04:11:35;;;;;;;;;;;13.00;99.90;;;;;;5046484;28;20029;-59
2021/07/23 04:14:01;;;;;;;21.13;12.43;;;13.00;99.90;;;;;;5047980;28;19924;-60
2021/07/23 04:16:27;;;;;;;;;;;13.00;99.90;;;;;;5047862;28;20045;-59
2021/07/23 04:18:52;;;;;;;19.58;11.88;;;12.90;99.90;;;;;;5047627;28;19917;-59
2021/07/23 04:21:18;;;;;;;;;;;13.00;99.90;;;;;;5048688;28;20069;-61
2021/07/23 04:23:43;;;;;;;18.73;12.30;;;13.10;99.90;;;;;;5047366;28;20023;-61
2021/07/23 04:26:09;;;;;;;;;;;13.10;99.90;;;;;;5048103;28;20461;-59
2021/07/23 04:28:35;;;;;;;19.13;12.07;;;13.10;99.90;;;;;;5047670;28;19921;-60
2021/07/23 04:31:00;;;;;;;;;;;13.10;99.90;;;;;;5047276;28;20037;-59
2021/07/23 04:33:26;;;;;;;21.00;14.02;;;13.10;99.90;;;;;;5046730;28;19921;-59
2021/07/23 04:35:51;;;;;;;;;;;13.20;99.90;;;;;;5048084;28;20037;-59
2021/07/23 04:38:17;;;;;;;21.58;13.40;;;13.10;99.90;;;;;;5043094;28;19926;-56
2021/07/23 04:40:42;;;;;;;;;;;13.10;99.90;;;;;;5035201;28;20553;-59
2021/07/23 04:43:08;;;;;;;23.25;13.77;;;13.20;99.90;;;;;;5027100;28;19917;-60
2021/07/23 04:45:34;;;;;;;;;;;13.20;99.90;;;;;;5027268;28;20591;-57
2021/07/23 04:47:59;;;;;;;23.52;13.18;;;13.30;99.90;;;;;;5027245;28;19921;-57
2021/07/23 04:50:25;;;;;;;;;;;13.30;99.90;;;;;;5028294;28;20083;-59
2021/07/23 04:52:55;;;;;;;18.02;11.48;;;13.30;99.90;;;;;;5028046;28;20199;-58
2021/07/23 04:55:21;;;;;;;20.70;12.20;;;13.40;99.90;;;;;;5026846;28;20041;-57
2021/07/23 04:57:47;;;;;;;;;;;13.60;99.90;;;;;;5040098;28;20040;-60
2021/07/23 05:00:13;;;;;;;23.98;13.88;;;13.70;99.90;;;;;;5029390;28;20517;-58
2021/07/23 05:02:41;;;;;;;29.50;13.27;;;13.60;99.90;;;;;;5025736;28;20205;-61
2021/07/23 05:05:13;;;;;;;28.75;12.68;;;13.60;99.90;;;;;;5034896;28;20037;-60
2021/07/23 05:07:42;;;;;;;19.45;12.85;;;13.70;99.90;;;;;;5047472;28;20128;-61
2021/07/23 05:10:09;;;;;;;18.85;12.95;;;13.60;99.90;;;;;;5046709;28;20051;-62
2021/07/23 05:12:37;;;;;;;20.17;13.13;;;13.50;99.90;;;;;;5046504;28;20045;-60
2021/07/23 05:15:03;;;;;;;19.95;11.98;;;13.60;99.90;;;;;;5046588;28;20048;-58
2021/07/23 05:17:30;;;;;;;18.20;11.55;;;13.60;99.90;;;;;;5045982;28;20048;-57
2021/07/23 05:19:56;;;;;;;18.48;13.00;;;13.70;99.90;;;;;;5046720;28;20051;-57
2021/07/23 05:22:22;;;;;;;;;;;13.80;99.90;;;;;;5026740;28;20037;-55
2021/07/23 05:24:47;;;;;;;19.58;11.02;;;14.00;99.90;;;;;;5026748;28;19916;-58
2021/07/23 05:27:13;;;;;;;;;;;14.40;99.90;;;;;;5026669;28;20132;-54
2021/07/23 05:29:38;;;;;;;19.35;11.00;;;14.60;99.90;;;;;;5034723;28;19917;-57
2021/07/23 05:32:04;;;;;;;;;;;14.80;99.90;;;;;;5046129;28;20045;-60
2021/07/23 05:34:30;;;;;;;18.92;11.23;;;15.00;99.90;;;;;;5043579;28;19939;-59
2021/07/23 05:36:58;;;;;;;;;;;14.90;99.90;;;;;;5042100;28;20089;-60
2021/07/23 05:39:24;;;;;;;14.48;10.25;;;14.80;99.90;;;;;;5046468;28;19993;-59
2021/07/23 05:41:49;;;;;;;;;;;14.80;99.90;;;;;;5048254;28;20045;-59
2021/07/23 05:44:15;;;;;;;15.88;9.90;;;14.80;99.90;;;;;;5046880;28;20606;-60
2021/07/23 05:46:40;;;;;;;;;;;14.90;99.90;;;;;;5046625;28;20053;-59
2021/07/23 05:49:06;;;;;;;15.63;10.35;;;14.90;99.90;;;;;;5046322;28;19916;-60
2021/07/23 05:51:31;;;;;;;;;;;14.90;99.90;;;;;;5046600;28;20044;-61
2021/07/23 05:53:57;;;;;;;20.77;12.13;;;15.00;99.90;;;;;;5046155;28;20680;-59
2021/07/23 05:56:22;;;;;;;;;;;15.00;99.90;;;;;;5046448;28;20160;-58
2021/07/23 05:58:48;;;;;;;20.02;11.63;;;15.00;99.90;;;;;;5039815;28;19917;-61
2021/07/23 06:01:14;;;;;;;;;;;15.10;99.90;;;;;;5024416;28;20509;-60
2021/07/23 06:03:40;;;;;;;19.25;12.80;;;15.10;99.90;;;;;;5025854;28;20296;-60
2021/07/23 06:06:05;;;;;;;;;;;15.20;99.90;;;;;;5027402;28;20052;-61
2021/07/23 06:08:31;;;;;;;22.45;12.73;;;15.30;99.90;;;;;;5046606;28;19974;-61
2021/07/23 06:11:02;;;;;;;;;;;15.40;99.90;;;;;;5046212;28;20474;-61
2021/07/23 06:13:28;;;;;;;18.95;12.15;;;15.40;99.90;;;;;;5045374;28;20568;-61
2021/07/23 06:15:53;;;;;;;;;;;15.50;99.90;;;;;;5045351;28;20041;-60
2021/07/23 06:18:19;;;;;;;27.15;14.50;;;15.60;99.90;;;;;;5045477;28;19916;-62
2021/07/23 06:20:44;;;;;;;;;;;15.60;99.90;;;;;;5045977;28;20083;-60
2021/07/23 06:23:10;;;;;;;26.15;14.80;;;15.60;99.90;;;;;;5043843;28;20487;-61
2021/07/23 06:25:35;;;;;;;;;;;15.70;99.90;;;;;;5046118;28;20045;-61
2021/07/23 06:28:01;;;;;;;27.38;14.63;;;15.80;99.90;;;;;;5046563;28;19917;-62
2021/07/23 06:30:27;;;;;;;;;;;15.80;99.90;;;;;;5047203;28;20590;-61
2021/07/23 06:32:52;;;;;;;30.65;14.65;;;15.90;99.90;;;;;;5047613;28;19924;-62
2021/07/23 06:35:18;;;;;;;;;;;16.00;99.90;;;;;;5047209;28;20040;-62
2021/07/23 06:37:43;;;;;;;34.88;14.15;;;16.10;99.90;;;;;;5047414;28;19912;-60
2021/07/23 06:40:09;;;;;;;;;;;16.10;99.90;;;;;;5044156;28;20396;-59
2021/07/23 06:42:36;;;;;;;23.35;15.15;;;16.20;99.90;;;;;;5039319;28;19916;-61
2021/07/23 06:45:02;;;;;;;26.33;14.63;;;16.20;99.90;;;;;;5042569;28;20099;-60
2021/07/23 06:47:28;;;;;;;29.02;15.05;;;16.40;99.90;;;;;;5036620;28;20045;-62
2021/07/23 06:49:53;;;;;;;;;;;16.40;99.90;;;;;;5043267;28;20043;-61
2021/07/23 06:52:19;;;;;;;21.77;14.48;;;16.40;99.90;;;;;;5034164;28;20508;-61
2021/07/23 06:54:45;;;;;;;;;;;16.50;99.90;;;;;;5045569;28;20701;-61
2021/07/23 06:57:11;;;;;;;27.98;16.90;;;16.70;99.90;;;;;;5045268;28;20000;-60
2021/07/23 06:59:36;;;;;;;;;;;16.70;99.90;;;;;;5046114;28;20051;-60
2021/07/23 07:02:03;;;;;;;27.80;15.63;;;16.60;99.90;;;;;;5044481;28;19988;-60
2021/07/23 07:04:28;;;;;;;37.20;16.85;;;16.80;99.90;;;;;;5044543;28;20131;-62
2021/07/23 07:06:55;;;;;;;;;;;16.70;99.90;;;;;;5044166;28;20136;-61
2021/07/23 07:09:23;;;;;;;29.48;15.57;;;16.80;99.90;;;;;;5042926;28;19924;-61
2021/07/23 07:11:48;;;;;;;25.40;14.73;;;16.90;99.90;;;;;;5036776;28;20072;-60
2021/07/23 07:14:14;;;;;;;;;;;17.10;99.90;;;;;;5045697;28;20065;-61
2021/07/23 07:16:39;;;;;;;22.60;14.20;;;17.20;99.90;;;;;;5044023;28;19974;-62
2021/07/23 07:19:05;;;;;;;23.60;13.95;;;17.20;99.90;;;;;;5045721;28;20572;-61
2021/07/23 07:21:30;;;;;;;;;;;17.30;99.90;;;;;;5033022;28;20423;-61
2021/07/23 07:23:56;;;;;;;25.63;14.30;;;17.40;99.90;;;;;;5024723;28;20513;-62
2021/07/23 07:26:22;;;;;;;;;;;17.60;99.90;;;;;;5025311;28;20041;-61
2021/07/23 07:28:48;;;;;;;23.70;15.02;;;17.80;99.90;;;;;;5029801;28;19921;-60
2021/07/23 07:31:15;;;;;;;;;;;17.80;99.90;;;;;;5029419;28;20653;-61
2021/07/23 07:33:41;;;;;;;23.83;14.63;;;17.80;99.90;;;;;;5036373;28;19928;-62
2021/07/23 07:36:07;;;;;;;;;;;17.90;99.90;;;;;;5053726;28;20071;-61
2021/07/23 07:38:32;;;;;;;21.52;13.27;;;18.00;99.90;;;;;;5046460;28;19994;-61
2021/07/23 07:40:58;;;;;;;;;;;18.40;99.90;;;;;;5040263;28;20040;-63
2021/07/23 07:43:23;;;;;;;24.23;14.70;;;18.50;99.90;;;;;;5042307;28;19921;-62
2021/07/23 07:45:53;;;;;;;;;;;18.40;99.90;;;;;;5046476;28;20041;-64
2021/07/23 07:48:18;;;;;;;34.70;14.35;;;18.40;99.90;;;;;;5038703;28;19927;-60
2021/07/23 07:50:44;;;;;;;;;;;18.40;99.90;;;;;;5042182;28;20112;-61
2021/07/23 07:53:12;;;;;;;23.67;14.57;;;18.40;99.90;;;;;;5044675;28;19977;-63
2021/07/23 07:55:38;;;;;;;24.98;14.73;;;18.40;99.90;;;;;;5043841;28;20057;-65
2021/07/23 07:58:04;;;;;;;23.88;14.38;;;18.50;99.90;;;;;;5044069;28;20049;-65
2021/07/23 08:00:29;;;;;;;;;;;18.80;99.90;;;;;;5029524;28;20094;-64
2021/07/23 08:02:55;;;;;;;22.33;14.63;;;19.30;99.90;;;;;;5028066;28;19913;-64
2021/07/23 08:05:21;;;;;;;22.95;12.65;;;20.10;99.90;;;;;;5038107;28;20525;-63
2021/07/23 08:07:46;;;;;;;21.27;12.02;;;20.40;99.90;;;;;;5047670;28;20049;-61
2021/07/23 08:10:14;;;;;;;18.80;11.23;;;20.40;99.90;;;;;;5039869;28;20030;-60
2021/07/23 08:12:41;;;;;;;18.05;12.57;;;20.10;99.90;;;;;;5043341;28;20037;-61
2021/07/23 08:15:07;;;;;;;23.65;13.40;;;19.60;99.90;;;;;;5027510;28;20489;-61
2021/07/23 08:17:32;;;;;;;;;;;19.20;99.90;;;;;;5028192;28;20075;-63
2021/07/23 08:20:02;;;;;;;17.83;12.35;;;19.10;99.90;;;;;;5028488;28;19970;-61
2021/07/23 08:22:31;;;;;;;20.77;11.88;;;19.10;99.90;;;;;;5046227;28;20041;-62
2021/07/23 08:24:57;;;;;;;20.85;12.85;;;18.90;99.90;;;;;;5046256;28;20037;-60
2021/07/23 08:27:22;;;;;;;;;;;19.00;99.90;;;;;;5046844;28;20044;-60
2021/07/23 08:29:48;;;;;;;22.60;13.60;;;19.00;99.90;;;;;;5048670;28;19923;-60
2021/07/23 08:32:14;;;;;;;;;;;19.00;99.90;;;;;;5047444;28;20048;-61
2021/07/23 08:34:40;;;;;;;17.02;11.05;;;19.10;99.90;;;;;;5047557;28;19917;-62
2021/07/23 08:37:06;;;;;;;23.80;12.15;;;19.30;99.90;;;;;;5048194;28;20451;-62
2021/07/23 08:39:32;;;;;;;23.73;13.68;;;19.80;99.90;;;;;;5047502;28;20051;-61
2021/07/23 08:41:58;;;;;;;;;;;19.90;99.90;;;;;;5046565;28;20029;-61
2021/07/23 08:44:25;;;;;;;27.20;13.98;;;20.10;99.90;;;;;;5038978;28;19928;-59
2021/07/23 08:46:54;;;;;;;22.73;13.35;;;20.20;99.90;;;;;;5046512;28;20124;-61
2021/07/23 08:49:20;;;;;;;21.40;11.48;;;20.70;99.90;;;;;;5047179;28;20040;-61
2021/07/23 08:51:50;;;;;;;19.30;11.57;;;20.90;99.90;;;;;;5046939;28;20128;-59
2021/07/23 08:54:16;;;;;;;21.05;12.38;;;20.70;99.90;;;;;;5047330;28;20041;-60
2021/07/23 08:56:47;;;;;;;;;;;20.50;99.90;;;;;;5048232;28;20103;-61
2021/07/23 08:59:14;;;;;;;19.67;11.38;;;20.50;99.90;;;;;;5048893;28;19927;-61
2021/07/23 09:02:05;;;;;;;21.20;13.00;;;21.10;99.90;;;;;;5048130;28;20144;-61
2021/07/23 09:04:34;;;;;;;24.30;11.15;;;21.00;99.90;;;;;;5048140;28;20066;-60
2021/07/23 09:07:12;;;;;;;19.08;11.88;;;20.70;99.90;;;;;;5048289;28;20103;-62
2021/07/23 09:09:38;;;;;;;19.90;11.93;;;20.30;99.90;;;;;;5048297;28;20033;-61
2021/07/23 09:12:04;;;;;;;24.02;13.50;;;20.10;99.90;;;;;;5048563;28;20032;-61
2021/07/23 09:14:29;;;;;;;;;;;19.60;99.90;;;;;;5048737;28;20617;-61
2021/07/23 09:16:56;;;;;;;19.25;12.05;;;19.60;99.90;;;;;;5047239;28;19940;-59
2021/07/23 09:19:21;;;;;;;22.35;13.45;;;19.70;99.90;;;;;;5047223;28;20041;-60
2021/07/23 09:21:54;;;;;;;;;;;19.50;99.90;;;;;;5048764;28;20059;-61
2021/07/23 09:24:20;;;;;;;24.85;12.57;;;19.50;99.90;;;;;;5048025;28;19917;-62
2021/07/23 09:26:46;;;;;;;27.77;13.27;;;19.50;99.90;;;;;;5047389;28;20144;-61
2021/07/23 09:29:13;;;;;;;19.73;12.13;;;19.60;99.90;;;;;;5047358;28;20037;-60
2021/07/23 09:31:39;;;;;;;19.00;12.57;;;19.70;99.90;;;;;;5047139;28;20124;-61
2021/07/23 09:34:05;;;;;;;;;;;19.70;99.90;;;;;;5047575;28;20132;-60
2021/07/23 09:36:32;;;;;;;21.55;13.25;;;19.80;99.90;;;;;;5046173;28;20006;-60
2021/07/23 09:39:06;;;;;;;19.75;11.77;;;19.70;99.90;;;;;;5045315;28;20067;-61
2021/07/23 09:41:33;;;;;;;23.45;13.73;;;19.80;99.90;;;;;;5035783;28;20648;-60
2021/07/23 09:44:08;;;;;;;23.02;12.63;;;19.80;99.90;;;;;;5027530;28;20127;-61
2021/07/23 09:46:35;;;;;;;21.92;12.82;;;19.80;99.90;;;;;;5026927;28;20072;-62
2021/07/23 09:49:19;;;;;;;23.92;14.45;;;19.90;99.90;;;;;;5025872;28;20533;-62
2021/07/23 09:51:45;;;;;;;21.65;13.52;;;20.20;99.90;;;;;;5026291;28;20033;-61
2021/07/23 09:54:11;;;;;;;21.42;14.10;;;20.10;99.90;;;;;;5026628;28;20041;-64
2021/07/23 09:56:38;;;;;;;;;;;20.10;99.90;;;;;;5045241;28;20052;-62
2021/07/23 09:59:10;;;;;;;29.20;15.35;;;20.20;99.90;;;;;;5045306;28;19921;-61
2021/07/23 10:01:41;;;;;;;22.83;12.98;;;20.30;99.90;;;;;;5039928;28;20037;-62
2021/07/23 10:04:31;;;;;;;24.67;12.30;;;20.50;99.90;;;;;;5027421;28;20049;-66
2021/07/23 10:07:04;;;;;;;20.48;12.48;;;20.70;99.90;;;;;;5032129;28;20139;-63
2021/07/23 10:09:31;;;;;;;20.33;12.65;;;20.60;99.90;;;;;;5046769;28;20037;-58
2021/07/23 10:11:58;;;;;;;22.77;12.15;;;20.40;99.90;;;;;;5045199;28;20127;-59
2021/07/23 10:14:27;;;;;;;18.70;11.45;;;20.20;99.90;;;;;;5046339;28;20091;-62
2021/07/23 10:16:53;;;;;;;23.98;12.07;;;20.10;99.90;;;;;;5045957;28;20044;-61
2021/07/23 10:19:22;;;;;;;;;;;19.90;99.90;;;;;;5046626;28;20056;-56
2021/07/23 10:21:49;;;;;;;18.08;11.02;;;19.90;99.90;;;;;;5041234;28;19924;-59
2021/07/23 10:24:16;;;;;;;15.48;10.43;;;19.90;99.90;;;;;;5038029;28;20112;-59
2021/07/23 10:26:42;;;;;;;13.02;9.10;;;19.90;99.90;;;;;;5040205;28;20048;-58
2021/07/23 10:29:09;;;;;;;;;;;20.00;99.90;;;;;;5042486;28;20044;-62
2021/07/23 10:31:41;;;;;;;17.63;10.43;;;20.10;99.90;;;;;;5028779;28;19921;-60
2021/07/23 10:34:09;;;;;;;18.58;10.60;;;19.90;99.90;;;;;;5041619;22;20055;-60
2021/07/23 10:36:35;;;;;;;16.55;10.40;;;19.90;99.90;;;;;;5059144;28;20048;-61
2021/07/23 10:39:09;;;;;;;17.98;11.65;;;20.10;99.90;;;;;;5056624;28;20033;-60
2021/07/23 10:41:40;;;;;;;24.23;11.15;;;19.90;99.90;;;;;;5055780;28;20036;-62
2021/07/23 10:44:21;;;;;;;16.95;11.45;;;20.00;99.90;;;;;;5060075;28;20037;-60
2021/07/23 10:46:46;;;;;;;17.27;11.25;;;19.90;99.90;;;;;;5065326;28;20097;-61
2021/07/23 10:49:44;;;;;;;;;;;20.00;99.90;;;;;;5066285;28;20044;-61
2021/07/23 10:52:25;;;;;;;20.77;12.32;;;20.10;99.90;;;;;;5065435;28;20411;-62
2021/07/23 10:55:11;;;;;;;18.70;10.95;;;20.10;99.90;;;;;;5047763;28;20107;-62
2021/07/23 10:57:37;;;;;;;22.40;12.32;;;20.50;99.90;;;;;;5064755;28;20403;-63
2021/07/23 11:00:04;;;;;;;;;;;20.50;99.90;;;;;;5065578;28;20040;-61
2021/07/23 11:02:29;;;;;;;19.27;11.45;;;20.70;99.90;;;;;;5065132;28;19931;-64
2021/07/23 11:05:09;;;;;;;18.42;11.88;;;20.90;99.90;;;;;;5058159;28;20541;-63
2021/07/23 11:07:35;;;;;;;19.38;10.93;;;21.00;99.90;;;;;;5047991;28;20118;-63
2021/07/23 11:10:03;;;;;;;18.73;10.15;;;21.00;99.90;;;;;;5060225;28;20489;-62
2021/07/23 11:12:32;;;;;;;20.63;11.38;;;21.00;99.90;;;;;;5052499;28;20851;-63
2021/07/23 11:14:59;;;;;;;22.27;10.60;;;20.80;99.90;;;;;;5055830;28;20033;-62
2021/07/23 11:17:26;;;;;;;16.98;10.52;;;20.80;99.90;;;;;;5052755;28;20045;-62
2021/07/23 11:19:55;;;;;;;12.23;8.75;;;20.90;99.90;;;;;;5046227;28;20070;-63
2021/07/23 11:22:26;;;;;;;19.80;9.38;;;20.90;99.90;;;;;;5056336;28;20436;-62
2021/07/23 11:25:00;;;;;;;16.80;10.20;;;20.80;99.90;;;;;;5055248;28;20037;-62
2021/07/23 11:27:34;;;;;;;15.15;10.00;;;20.80;99.90;;;;;;5048099;28;20571;-63
2021/07/23 11:30:12;;;;;;;18.15;9.52;;;20.60;99.90;;;;;;5045160;28;20501;-60
2021/07/23 11:33:05;;;;;;;13.32;8.15;;;20.70;99.90;;;;;;5045287;28;20780;-61
2021/07/23 11:35:32;;;;;;;23.30;11.20;;;20.70;99.90;;;;;;5043170;28;20412;-63
2021/07/23 11:38:01;;;;;;;16.60;9.48;;;20.50;99.90;;;;;;5062210;28;20311;-62
2021/07/23 11:40:27;;;;;;;18.38;9.52;;;20.50;99.90;;;;;;5060394;28;20072;-62
2021/07/23 11:42:55;;;;;;;19.52;9.77;;;20.50;99.90;;;;;;5057184;28;20031;-61
2021/07/23 11:45:35;;;;;;;18.90;9.90;;;20.60;99.90;;;;;;5056167;28;20036;-61
2021/07/23 11:48:13;;;;;;;15.20;10.68;;;20.40;99.90;;;;;;5051094;28;20040;-61
2021/07/23 11:50:52;;;;;;;17.67;10.18;;;20.40;99.70;;;;;;5049697;28;20062;-61
2021/07/23 11:53:18;;;;;;;14.13;9.73;;;20.60;99.90;;;;;;5055829;28;20065;-61
2021/07/23 11:55:44;;;;;;;;;;;20.80;99.80;;;;;;5064882;28;20075;-61
2021/07/23 11:58:25;;;;;;;18.60;10.77;;;21.20;99.90;;;;;;5048861;28;19927;-61
2021/07/23 12:00:51;;;;;;;18.40;10.75;;;21.10;98.50;;;;;;5058290;28;20040;-63
2021/07/23 12:03:21;;;;;;;;;;;21.00;99.20;;;;;;5064968;28;20101;-62
2021/07/23 12:05:47;;;;;;;17.05;9.60;;;21.00;98.90;;;;;;5057819;28;19927;-61
2021/07/23 12:08:13;;;;;;;17.42;9.60;;;20.90;99.60;;;;;;5065790;28;20448;-61
2021/07/23 12:10:38;;;;;;;;;;;20.90;99.90;;;;;;5065034;28;20437;-61
2021/07/23 12:13:10;;;;;;;14.77;9.70;;;20.70;99.90;;;;;;5064479;28;19967;-60
2021/07/23 12:15:50;;;;;;;16.77;10.27;;;20.70;99.90;;;;;;5068424;28;20033;-60
2021/07/23 12:18:21;;;;;;;18.38;8.75;;;20.70;99.90;;;;;;5050449;28;20044;-61
2021/07/23 12:20:47;;;;;;;18.58;10.35;;;20.60;99.90;;;;;;5068492;28;20127;-62
2021/07/23 12:23:23;;;;;;;15.75;10.05;;;20.60;99.90;;;;;;5050109;28;20682;-59
2021/07/23 12:25:49;;;;;;;19.10;10.18;;;20.70;99.40;;;;;;5067680;28;20412;-59
2021/07/23 12:28:17;;;;;;;14.38;9.68;;;20.80;99.60;;;;;;5067996;28;20048;-59
2021/07/23 12:30:44;;;;;;;17.13;11.00;;;21.00;99.60;;;;;;5067992;28;20074;-60
2021/07/23 12:33:11;;;;;;;18.90;10.43;;;21.20;98.50;;;;;;5068169;28;20044;-57
2021/07/23 12:35:36;;;;;;;24.67;10.05;;;21.30;99.30;;;;;;5068388;28;20041;-59
2021/07/23 12:38:07;;;;;;;17.98;10.32;;;21.40;98.90;;;;;;5067539;28;20046;-59
2021/07/23 12:40:45;;;;;;;14.75;9.55;;;21.60;98.00;;;;;;5068665;28;20045;-60
2021/07/23 12:43:15;;;;;;;15.15;8.63;;;21.90;98.50;;;;;;5067836;28;20044;-60
2021/07/23 12:45:41;;;;;;;18.42;9.93;;;22.10;98.40;;;;;;5067002;28;20125;-61
2021/07/23 12:48:14;;;;;;;15.02;9.45;;;22.30;98.20;;;;;;5067759;28;20531;-61
2021/07/23 12:50:41;;;;;;;15.00;9.15;;;22.50;97.90;;;;;;5049764;28;20442;-60
2021/07/23 12:53:09;;;;;;;17.58;9.45;;;22.50;96.40;;;;;;5066835;28;20403;-60
2021/07/23 12:55:35;;;;;;;16.95;10.00;;;22.20;98.00;;;;;;5052074;28;20428;-59
2021/07/23 12:58:00;;;;;;;14.63;8.50;;;21.80;97.90;;;;;;5058138;28;20040;-59
2021/07/23 13:00:27;;;;;;;15.43;10.27;;;21.70;99.00;;;;;;5063520;28;20051;-60